sensor_id;sensor_type;location;lat;lon;timestamp;temperature;humidity
61896;DHT22;47835;52.778;5.956;2022-07-23T00:01:32;20.30;89.90
61896;DHT22;47835;52.778;5.956;2022-07-23T00:03:58;20.30;89.80
61896;DHT22;47835;52.778;5.956;2022-07-23T00:06:24;20.30;89.80
61896;DHT22;47835;52.778;5.956;2022-07-23T00:08:50;20.30;89.70
61896;DHT22;47835;52.778;5.956;2022-07-23T00:11:16;20.30;89.60
61896;DHT22;47835;52.778;5.956;2022-07-23T00:13:44;20.30;89.60
61896;DHT22;47835;52.778;5.956;2022-07-23T00:16:09;20.30;90.10
61896;DHT22;47835;52.778;5.956;2022-07-23T00:18:35;20.20;89.30
61896;DHT22;47835;52.778;5.956;2022-07-23T00:21:01;20.20;89.10
61896;DHT22;47835;52.778;5.956;2022-07-23T00:23:27;20.20;89.10
61896;DHT22;47835;52.778;5.956;2022-07-23T00:25:54;20.20;89.10
61896;DHT22;47835;52.778;5.956;2022-07-23T00:28:20;20.20;88.90
61896;DHT22;47835;52.778;5.956;2022-07-23T00:30:45;20.20;88.70
61896;DHT22;47835;52.778;5.956;2022-07-23T00:33:11;20.20;88.30
61896;DHT22;47835;52.778;5.956;2022-07-23T00:35:39;20.20;88.10
61896;DHT22;47835;52.778;5.956;2022-07-23T00:38:08;20.20;88.00
61896;DHT22;47835;52.778;5.956;2022-07-23T00:40:38;20.10;88.00
61896;DHT22;47835;52.778;5.956;2022-07-23T00:43:07;20.10;88.00
61896;DHT22;47835;52.778;5.956;2022-07-23T00:45:33;20.10;88.00
61896;DHT22;47835;52.778;5.956;2022-07-23T00:47:58;20.10;87.90
61896;DHT22;47835;52.778;5.956;2022-07-23T00:50:24;20.10;88.00
61896;DHT22;47835;52.778;5.956;2022-07-23T00:52:50;20.10;87.90
61896;DHT22;47835;52.778;5.956;2022-07-23T00:55:17;20.10;87.70
61896;DHT22;47835;52.778;5.956;2022-07-23T00:57:43;20.10;87.80
61896;DHT22;47835;52.778;5.956;2022-07-23T01:00:11;20.10;87.90
61896;DHT22;47835;52.778;5.956;2022-07-23T01:02:38;20.10;87.70
61896;DHT22;47835;52.778;5.956;2022-07-23T01:05:04;20.10;87.80
61896;DHT22;47835;52.778;5.956;2022-07-23T01:07:30;20.10;87.70
61896;DHT22;47835;52.778;5.956;2022-07-23T01:09:55;20.10;87.70
61896;DHT22;47835;52.778;5.956;2022-07-23T01:12:21;20.10;87.80
61896;DHT22;47835;52.778;5.956;2022-07-23T01:15:00;20.10;87.80
61896;DHT22;47835;52.778;5.956;2022-07-23T01:17:26;20.00;87.70
61896;DHT22;47835;52.778;5.956;2022-07-23T01:19:52;20.10;87.70
61896;DHT22;47835;52.778;5.956;2022-07-23T01:22:19;20.00;87.60
61896;DHT22;47835;52.778;5.956;2022-07-23T01:24:45;20.10;87.80
61896;DHT22;47835;52.778;5.956;2022-07-23T01:27:11;20.00;87.50
61896;DHT22;47835;52.778;5.956;2022-07-23T01:29:40;20.00;87.30
61896;DHT22;47835;52.778;5.956;2022-07-23T01:32:06;20.00;87.10
61896;DHT22;47835;52.778;5.956;2022-07-23T01:34:31;20.00;87.20
61896;DHT22;47835;52.778;5.956;2022-07-23T01:36:57;20.00;87.10
61896;DHT22;47835;52.778;5.956;2022-07-23T01:39:23;20.00;87.00
61896;DHT22;47835;52.778;5.956;2022-07-23T01:41:48;20.00;86.80
61896;DHT22;47835;52.778;5.956;2022-07-23T01:44:14;20.00;86.70
61896;DHT22;47835;52.778;5.956;2022-07-23T01:46:40;20.00;86.50
61896;DHT22;47835;52.778;5.956;2022-07-23T01:49:05;20.00;86.30
61896;DHT22;47835;52.778;5.956;2022-07-23T01:51:33;20.00;86.20
61896;DHT22;47835;52.778;5.956;2022-07-23T01:53:59;19.90;86.00
61896;DHT22;47835;52.778;5.956;2022-07-23T01:56:24;19.90;86.10
61896;DHT22;47835;52.778;5.956;2022-07-23T01:58:50;19.90;86.20
61896;DHT22;47835;52.778;5.956;2022-07-23T02:01:15;19.90;86.10
61896;DHT22;47835;52.778;5.956;2022-07-23T02:03:41;19.90;86.00
61896;DHT22;47835;52.778;5.956;2022-07-23T02:06:07;19.90;86.00
61896;DHT22;47835;52.778;5.956;2022-07-23T02:08:32;19.90;85.80
61896;DHT22;47835;52.778;5.956;2022-07-23T02:10:58;19.90;85.70
61896;DHT22;47835;52.778;5.956;2022-07-23T02:13:23;19.90;85.80
61896;DHT22;47835;52.778;5.956;2022-07-23T02:15:51;19.80;85.60
61896;DHT22;47835;52.778;5.956;2022-07-23T02:18:17;19.80;85.50
61896;DHT22;47835;52.778;5.956;2022-07-23T02:20:45;19.80;85.40
61896;DHT22;47835;52.778;5.956;2022-07-23T02:23:13;19.80;85.30
61896;DHT22;47835;52.778;5.956;2022-07-23T02:25:39;19.80;85.10
61896;DHT22;47835;52.778;5.956;2022-07-23T02:28:05;19.80;85.30
61896;DHT22;47835;52.778;5.956;2022-07-23T02:30:33;19.80;85.00
61896;DHT22;47835;52.778;5.956;2022-07-23T02:32:58;19.80;84.80
61896;DHT22;47835;52.778;5.956;2022-07-23T02:35:24;19.80;84.90
61896;DHT22;47835;52.778;5.956;2022-07-23T02:37:49;19.80;84.80
61896;DHT22;47835;52.778;5.956;2022-07-23T02:40:15;19.80;84.80
61896;DHT22;47835;52.778;5.956;2022-07-23T02:42:41;19.80;84.70
61896;DHT22;47835;52.778;5.956;2022-07-23T02:45:06;19.80;84.80
61896;DHT22;47835;52.778;5.956;2022-07-23T02:47:32;19.80;84.60
61896;DHT22;47835;52.778;5.956;2022-07-23T02:49:58;19.70;84.20
61896;DHT22;47835;52.778;5.956;2022-07-23T02:52:23;19.70;84.20
61896;DHT22;47835;52.778;5.956;2022-07-23T02:54:49;19.70;84.10
61896;DHT22;47835;52.778;5.956;2022-07-23T02:57:14;19.70;84.10
61896;DHT22;47835;52.778;5.956;2022-07-23T02:59:40;19.70;84.10
61896;DHT22;47835;52.778;5.956;2022-07-23T03:02:05;19.70;84.30
61896;DHT22;47835;52.778;5.956;2022-07-23T03:04:31;19.70;84.20
61896;DHT22;47835;52.778;5.956;2022-07-23T03:06:56;19.70;84.10
61896;DHT22;47835;52.778;5.956;2022-07-23T03:09:22;19.70;84.00
61896;DHT22;47835;52.778;5.956;2022-07-23T03:11:47;19.60;83.90
61896;DHT22;47835;52.778;5.956;2022-07-23T03:14:13;19.70;83.90
61896;DHT22;47835;52.778;5.956;2022-07-23T03:16:40;19.70;83.60
61896;DHT22;47835;52.778;5.956;2022-07-23T03:19:05;19.60;83.60
61896;DHT22;47835;52.778;5.956;2022-07-23T03:21:31;19.60;83.50
61896;DHT22;47835;52.778;5.956;2022-07-23T03:23:57;19.60;83.30
61896;DHT22;47835;52.778;5.956;2022-07-23T03:26:24;19.60;83.30
61896;DHT22;47835;52.778;5.956;2022-07-23T03:28:52;19.60;83.20
61896;DHT22;47835;52.778;5.956;2022-07-23T03:31:18;19.60;84.00
61896;DHT22;47835;52.778;5.956;2022-07-23T03:33:46;19.60;83.10
61896;DHT22;47835;52.778;5.956;2022-07-23T03:36:12;19.60;82.80
61896;DHT22;47835;52.778;5.956;2022-07-23T03:38:40;19.50;82.50
61896;DHT22;47835;52.778;5.956;2022-07-23T03:41:05;19.60;82.60
61896;DHT22;47835;52.778;5.956;2022-07-23T03:43:31;19.60;82.30
61896;DHT22;47835;52.778;5.956;2022-07-23T03:45:56;19.50;82.40
61896;DHT22;47835;52.778;5.956;2022-07-23T03:48:22;19.50;82.50
61896;DHT22;47835;52.778;5.956;2022-07-23T03:50:47;19.50;82.90
61896;DHT22;47835;52.778;5.956;2022-07-23T03:53:15;19.50;82.80
61896;DHT22;47835;52.778;5.956;2022-07-23T03:55:41;19.50;82.80
61896;DHT22;47835;52.778;5.956;2022-07-23T03:58:07;19.50;82.90
61896;DHT22;47835;52.778;5.956;2022-07-23T04:00:33;19.50;82.90
61896;DHT22;47835;52.778;5.956;2022-07-23T04:02:59;19.50;82.80
61896;DHT22;47835;52.778;5.956;2022-07-23T04:05:24;19.50;82.80
61896;DHT22;47835;52.778;5.956;2022-07-23T04:07:52;19.50;82.90
61896;DHT22;47835;52.778;5.956;2022-07-23T04:10:18;19.50;83.00
61896;DHT22;47835;52.778;5.956;2022-07-23T04:12:43;19.50;83.90
61896;DHT22;47835;52.778;5.956;2022-07-23T04:15:09;19.50;83.20
61896;DHT22;47835;52.778;5.956;2022-07-23T04:17:35;19.50;83.50
61896;DHT22;47835;52.778;5.956;2022-07-23T04:20:01;19.50;83.50
61896;DHT22;47835;52.778;5.956;2022-07-23T04:22:26;19.50;83.40
61896;DHT22;47835;52.778;5.956;2022-07-23T04:24:52;19.50;83.40
61896;DHT22;47835;52.778;5.956;2022-07-23T04:27:18;19.50;83.60
61896;DHT22;47835;52.778;5.956;2022-07-23T04:29:44;19.50;83.70
61896;DHT22;47835;52.778;5.956;2022-07-23T04:32:09;19.50;83.80
61896;DHT22;47835;52.778;5.956;2022-07-23T04:34:38;19.50;83.90
61896;DHT22;47835;52.778;5.956;2022-07-23T04:37:03;19.50;84.10
61896;DHT22;47835;52.778;5.956;2022-07-23T04:39:29;19.50;84.20
61896;DHT22;47835;52.778;5.956;2022-07-23T04:41:55;19.50;84.40
61896;DHT22;47835;52.778;5.956;2022-07-23T04:44:20;19.50;84.50
61896;DHT22;47835;52.778;5.956;2022-07-23T04:46:48;19.40;84.50
61896;DHT22;47835;52.778;5.956;2022-07-23T04:49:13;19.40;84.60
61896;DHT22;47835;52.778;5.956;2022-07-23T04:51:39;19.50;85.00
61896;DHT22;47835;52.778;5.956;2022-07-23T04:54:05;19.50;85.60
61896;DHT22;47835;52.778;5.956;2022-07-23T04:56:30;19.40;86.10
61896;DHT22;47835;52.778;5.956;2022-07-23T04:58:56;19.50;86.70
61896;DHT22;47835;52.778;5.956;2022-07-23T05:01:21;19.50;86.90
61896;DHT22;47835;52.778;5.956;2022-07-23T05:03:47;19.50;87.20
61896;DHT22;47835;52.778;5.956;2022-07-23T05:06:14;19.50;87.40
61896;DHT22;47835;52.778;5.956;2022-07-23T05:08:39;19.50;87.80
61896;DHT22;47835;52.778;5.956;2022-07-23T05:11:05;19.50;88.10
61896;DHT22;47835;52.778;5.956;2022-07-23T05:13:31;19.50;88.40
61896;DHT22;47835;52.778;5.956;2022-07-23T05:15:56;19.50;88.70
61896;DHT22;47835;52.778;5.956;2022-07-23T05:18:22;19.60;89.10
61896;DHT22;47835;52.778;5.956;2022-07-23T05:20:47;19.60;89.40
61896;DHT22;47835;52.778;5.956;2022-07-23T05:23:16;19.60;89.70
61896;DHT22;47835;52.778;5.956;2022-07-23T05:25:41;19.60;90.10
61896;DHT22;47835;52.778;5.956;2022-07-23T05:28:07;19.60;91.00
61896;DHT22;47835;52.778;5.956;2022-07-23T05:30:36;19.50;91.40
61896;DHT22;47835;52.778;5.956;2022-07-23T05:33:01;19.40;91.70
61896;DHT22;47835;52.778;5.956;2022-07-23T05:35:27;19.40;92.30
61896;DHT22;47835;52.778;5.956;2022-07-23T05:37:52;19.30;92.60
61896;DHT22;47835;52.778;5.956;2022-07-23T05:40:18;19.30;93.10
61896;DHT22;47835;52.778;5.956;2022-07-23T05:42:43;19.30;93.60
61896;DHT22;47835;52.778;5.956;2022-07-23T05:45:10;19.20;94.10
61896;DHT22;47835;52.778;5.956;2022-07-23T05:47:43;19.20;94.30
61896;DHT22;47835;52.778;5.956;2022-07-23T05:50:10;19.20;94.70
61896;DHT22;47835;52.778;5.956;2022-07-23T05:52:35;19.20;95.00
61896;DHT22;47835;52.778;5.956;2022-07-23T05:55:01;19.30;95.20
61896;DHT22;47835;52.778;5.956;2022-07-23T05:57:27;19.30;95.50
61896;DHT22;47835;52.778;5.956;2022-07-23T05:59:52;19.30;95.60
61896;DHT22;47835;52.778;5.956;2022-07-23T06:02:18;19.30;95.90
61896;DHT22;47835;52.778;5.956;2022-07-23T06:04:43;19.30;95.70
61896;DHT22;47835;52.778;5.956;2022-07-23T06:07:09;19.40;96.00
61896;DHT22;47835;52.778;5.956;2022-07-23T06:09:34;19.50;96.00
61896;DHT22;47835;52.778;5.956;2022-07-23T06:12:00;19.50;95.90
61896;DHT22;47835;52.778;5.956;2022-07-23T06:14:25;19.50;96.40
61896;DHT22;47835;52.778;5.956;2022-07-23T06:16:51;19.50;97.00
61896;DHT22;47835;52.778;5.956;2022-07-23T06:19:17;19.50;96.70
61896;DHT22;47835;52.778;5.956;2022-07-23T06:21:43;19.60;96.20
61896;DHT22;47835;52.778;5.956;2022-07-23T06:24:08;19.60;95.90
61896;DHT22;47835;52.778;5.956;2022-07-23T06:26:34;19.70;96.20
61896;DHT22;47835;52.778;5.956;2022-07-23T06:28:59;19.80;95.40
61896;DHT22;47835;52.778;5.956;2022-07-23T06:31:25;19.90;95.50
61896;DHT22;47835;52.778;5.956;2022-07-23T06:33:53;20.00;95.30
61896;DHT22;47835;52.778;5.956;2022-07-23T06:36:18;20.00;95.10
61896;DHT22;47835;52.778;5.956;2022-07-23T06:38:44;20.10;95.10
61896;DHT22;47835;52.778;5.956;2022-07-23T06:41:09;20.10;94.90
61896;DHT22;47835;52.778;5.956;2022-07-23T06:43:35;20.20;94.80
61896;DHT22;47835;52.778;5.956;2022-07-23T06:46:01;20.20;94.60
61896;DHT22;47835;52.778;5.956;2022-07-23T06:48:26;20.30;94.50
61896;DHT22;47835;52.778;5.956;2022-07-23T06:50:52;20.30;94.30
61896;DHT22;47835;52.778;5.956;2022-07-23T06:53:18;20.30;94.20
61896;DHT22;47835;52.778;5.956;2022-07-23T06:55:43;20.40;94.30
61896;DHT22;47835;52.778;5.956;2022-07-23T06:58:09;20.50;94.60
61896;DHT22;47835;52.778;5.956;2022-07-23T07:00:35;20.50;94.20
61896;DHT22;47835;52.778;5.956;2022-07-23T07:03:04;20.50;94.90
61896;DHT22;47835;52.778;5.956;2022-07-23T07:05:29;20.50;94.80
61896;DHT22;47835;52.778;5.956;2022-07-23T07:07:55;20.50;94.70
61896;DHT22;47835;52.778;5.956;2022-07-23T07:10:21;20.50;94.70
61896;DHT22;47835;52.778;5.956;2022-07-23T07:12:46;20.50;94.40
61896;DHT22;47835;52.778;5.956;2022-07-23T07:15:12;20.60;94.40
61896;DHT22;47835;52.778;5.956;2022-07-23T07:17:38;20.60;94.50
61896;DHT22;47835;52.778;5.956;2022-07-23T07:20:05;20.60;94.40
61896;DHT22;47835;52.778;5.956;2022-07-23T07:22:31;20.60;94.30
61896;DHT22;47835;52.778;5.956;2022-07-23T07:24:56;20.60;93.90
61896;DHT22;47835;52.778;5.956;2022-07-23T07:27:22;20.60;93.70
61896;DHT22;47835;52.778;5.956;2022-07-23T07:29:48;20.60;93.30
61896;DHT22;47835;52.778;5.956;2022-07-23T07:32:13;20.60;93.40
61896;DHT22;47835;52.778;5.956;2022-07-23T07:34:39;20.60;93.70
61896;DHT22;47835;52.778;5.956;2022-07-23T07:37:04;20.60;93.80
61896;DHT22;47835;52.778;5.956;2022-07-23T07:39:32;20.60;93.70
61896;DHT22;47835;52.778;5.956;2022-07-23T07:41:58;20.70;93.70
61896;DHT22;47835;52.778;5.956;2022-07-23T07:44:24;20.70;93.60
61896;DHT22;47835;52.778;5.956;2022-07-23T07:46:49;20.70;93.70
61896;DHT22;47835;52.778;5.956;2022-07-23T07:49:15;20.70;93.60
61896;DHT22;47835;52.778;5.956;2022-07-23T07:51:42;20.70;93.60
61896;DHT22;47835;52.778;5.956;2022-07-23T07:54:08;20.70;92.60
61896;DHT22;47835;52.778;5.956;2022-07-23T07:56:33;20.70;92.90
61896;DHT22;47835;52.778;5.956;2022-07-23T07:58:59;20.80;93.10
61896;DHT22;47835;52.778;5.956;2022-07-23T08:01:26;20.80;93.00
61896;DHT22;47835;52.778;5.956;2022-07-23T08:03:52;20.90;92.60
61896;DHT22;47835;52.778;5.956;2022-07-23T08:06:17;20.90;93.30
61896;DHT22;47835;52.778;5.956;2022-07-23T08:08:43;21.00;94.40
61896;DHT22;47835;52.778;5.956;2022-07-23T08:11:09;21.00;94.70
61896;DHT22;47835;52.778;5.956;2022-07-23T08:13:34;21.00;94.20
61896;DHT22;47835;52.778;5.956;2022-07-23T08:16:00;21.00;94.10
61896;DHT22;47835;52.778;5.956;2022-07-23T08:18:28;21.00;93.40
61896;DHT22;47835;52.778;5.956;2022-07-23T08:20:56;21.00;93.70
61896;DHT22;47835;52.778;5.956;2022-07-23T08:23:22;21.00;93.50
61896;DHT22;47835;52.778;5.956;2022-07-23T08:25:47;21.00;93.20
61896;DHT22;47835;52.778;5.956;2022-07-23T08:28:14;21.00;92.90
61896;DHT22;47835;52.778;5.956;2022-07-23T08:30:42;21.00;92.70
61896;DHT22;47835;52.778;5.956;2022-07-23T08:33:13;21.00;92.60
61896;DHT22;47835;52.778;5.956;2022-07-23T08:35:41;21.00;92.50
61896;DHT22;47835;52.778;5.956;2022-07-23T08:38:09;21.00;92.20
61896;DHT22;47835;52.778;5.956;2022-07-23T08:40:50;21.00;92.10
61896;DHT22;47835;52.778;5.956;2022-07-23T08:43:27;20.90;92.10
61896;DHT22;47835;52.778;5.956;2022-07-23T08:45:54;21.00;92.20
61896;DHT22;47835;52.778;5.956;2022-07-23T08:48:26;20.90;91.60
61896;DHT22;47835;52.778;5.956;2022-07-23T08:50:56;21.00;91.60
61896;DHT22;47835;52.778;5.956;2022-07-23T08:53:24;20.90;91.40
61896;DHT22;47835;52.778;5.956;2022-07-23T08:55:52;20.90;91.30
61896;DHT22;47835;52.778;5.956;2022-07-23T08:58:18;20.90;91.30
61896;DHT22;47835;52.778;5.956;2022-07-23T09:00:45;20.90;91.20
61896;DHT22;47835;52.778;5.956;2022-07-23T09:03:20;20.90;91.10
61896;DHT22;47835;52.778;5.956;2022-07-23T09:05:48;20.90;91.10
61896;DHT22;47835;52.778;5.956;2022-07-23T09:08:16;20.90;91.20
61896;DHT22;47835;52.778;5.956;2022-07-23T09:10:50;20.90;91.20
61896;DHT22;47835;52.778;5.956;2022-07-23T09:13:41;20.90;91.10
61896;DHT22;47835;52.778;5.956;2022-07-23T09:16:16;20.90;91.00
61896;DHT22;47835;52.778;5.956;2022-07-23T09:21:27;20.90;90.80
61896;DHT22;47835;52.778;5.956;2022-07-23T09:24:03;20.90;90.70
61896;DHT22;47835;52.778;5.956;2022-07-23T09:26:36;21.00;90.40
61896;DHT22;47835;52.778;5.956;2022-07-23T09:29:24;21.00;90.50
61896;DHT22;47835;52.778;5.956;2022-07-23T09:34:26;21.00;90.40
61896;DHT22;47835;52.778;5.956;2022-07-23T09:37:12;20.90;90.40
61896;DHT22;47835;52.778;5.956;2022-07-23T09:39:42;21.00;90.50
61896;DHT22;47835;52.778;5.956;2022-07-23T09:42:14;21.00;90.50
61896;DHT22;47835;52.778;5.956;2022-07-23T09:44:44;21.00;90.50
61896;DHT22;47835;52.778;5.956;2022-07-23T09:47:13;21.00;90.40
61896;DHT22;47835;52.778;5.956;2022-07-23T09:49:39;21.00;90.50
61896;DHT22;47835;52.778;5.956;2022-07-23T09:52:06;21.00;90.50
61896;DHT22;47835;52.778;5.956;2022-07-23T09:54:33;21.00;90.50
61896;DHT22;47835;52.778;5.956;2022-07-23T09:59:35;21.00;90.60
61896;DHT22;47835;52.778;5.956;2022-07-23T10:02:02;21.00;90.60
61896;DHT22;47835;52.778;5.956;2022-07-23T10:04:29;21.00;90.60
61896;DHT22;47835;52.778;5.956;2022-07-23T10:06:58;21.00;90.80
61896;DHT22;47835;52.778;5.956;2022-07-23T10:09:32;21.10;91.00
61896;DHT22;47835;52.778;5.956;2022-07-23T10:12:01;21.10;91.90
61896;DHT22;47835;52.778;5.956;2022-07-23T10:14:38;21.10;93.10
61896;DHT22;47835;52.778;5.956;2022-07-23T10:17:04;21.10;94.10
61896;DHT22;47835;52.778;5.956;2022-07-23T10:19:30;21.20;97.00
61896;DHT22;47835;52.778;5.956;2022-07-23T10:22:07;21.30;99.90
61896;DHT22;47835;52.778;5.956;2022-07-23T10:25:12;21.30;99.90
61896;DHT22;47835;52.778;5.956;2022-07-23T10:33:56;21.50;99.90
61896;DHT22;47835;52.778;5.956;2022-07-23T10:36:40;21.50;99.70
61896;DHT22;47835;52.778;5.956;2022-07-23T10:39:13;21.50;98.60
61896;DHT22;47835;52.778;5.956;2022-07-23T10:41:41;21.50;97.60
61896;DHT22;47835;52.778;5.956;2022-07-23T10:44:21;21.50;95.70
61896;DHT22;47835;52.778;5.956;2022-07-23T10:47:02;21.60;96.00
61896;DHT22;47835;52.778;5.956;2022-07-23T10:49:35;21.50;95.60
61896;DHT22;47835;52.778;5.956;2022-07-23T10:57:23;21.50;94.50
61896;DHT22;47835;52.778;5.956;2022-07-23T11:02:31;21.60;94.90
61896;DHT22;47835;52.778;5.956;2022-07-23T11:05:07;21.60;96.00
61896;DHT22;47835;52.778;5.956;2022-07-23T11:07:34;21.60;95.30
61896;DHT22;47835;52.778;5.956;2022-07-23T11:10:00;21.70;94.80
61896;DHT22;47835;52.778;5.956;2022-07-23T11:17:36;21.70;93.80
61896;DHT22;47835;52.778;5.956;2022-07-23T11:25:31;21.70;94.40
61896;DHT22;47835;52.778;5.956;2022-07-23T11:28:14;21.70;94.80
61896;DHT22;47835;52.778;5.956;2022-07-23T11:30:45;21.70;95.40
61896;DHT22;47835;52.778;5.956;2022-07-23T11:35:46;21.70;95.70
61896;DHT22;47835;52.778;5.956;2022-07-23T11:38:22;21.80;95.60
61896;DHT22;47835;52.778;5.956;2022-07-23T11:40:55;21.80;94.90
61896;DHT22;47835;52.778;5.956;2022-07-23T11:43:23;21.80;94.30
61896;DHT22;47835;52.778;5.956;2022-07-23T11:45:53;21.80;94.40
61896;DHT22;47835;52.778;5.956;2022-07-23T11:48:27;21.80;94.60
61896;DHT22;47835;52.778;5.956;2022-07-23T11:50:55;21.80;95.00
61896;DHT22;47835;52.778;5.956;2022-07-23T11:53:25;21.80;95.50
61896;DHT22;47835;52.778;5.956;2022-07-23T11:55:53;21.80;95.60
61896;DHT22;47835;52.778;5.956;2022-07-23T11:58:20;21.80;95.20
61896;DHT22;47835;52.778;5.956;2022-07-23T12:00:49;21.80;95.00
61896;DHT22;47835;52.778;5.956;2022-07-23T12:03:16;21.90;94.60
61896;DHT22;47835;52.778;5.956;2022-07-23T12:05:41;21.80;94.70
61896;DHT22;47835;52.778;5.956;2022-07-23T12:08:08;21.90;94.50
61896;DHT22;47835;52.778;5.956;2022-07-23T12:10:35;21.90;94.10
61896;DHT22;47835;52.778;5.956;2022-07-23T12:13:21;21.90;93.90
61896;DHT22;47835;52.778;5.956;2022-07-23T12:15:56;21.90;93.80
61896;DHT22;47835;52.778;5.956;2022-07-23T12:18:24;21.90;94.50
61896;DHT22;47835;52.778;5.956;2022-07-23T12:20:52;21.90;94.90
61896;DHT22;47835;52.778;5.956;2022-07-23T12:23:19;21.90;94.50
61896;DHT22;47835;52.778;5.956;2022-07-23T12:25:46;21.90;94.20
61896;DHT22;47835;52.778;5.956;2022-07-23T12:30:54;21.80;93.50
61896;DHT22;47835;52.778;5.956;2022-07-23T12:33:31;21.90;93.50
61896;DHT22;47835;52.778;5.956;2022-07-23T12:35:59;21.80;93.50
61896;DHT22;47835;52.778;5.956;2022-07-23T12:38:28;21.80;93.60
61896;DHT22;47835;52.778;5.956;2022-07-23T12:41:01;21.80;93.20
61896;DHT22;47835;52.778;5.956;2022-07-23T12:43:36;21.80;93.30
61896;DHT22;47835;52.778;5.956;2022-07-23T12:46:06;21.90;92.80
61896;DHT22;47835;52.778;5.956;2022-07-23T12:48:49;21.90;92.70
61896;DHT22;47835;52.778;5.956;2022-07-23T12:53:52;21.90;93.10
61896;DHT22;47835;52.778;5.956;2022-07-23T12:56:21;21.90;93.00
61896;DHT22;47835;52.778;5.956;2022-07-23T12:58:53;21.90;92.80
61896;DHT22;47835;52.778;5.956;2022-07-23T13:04:05;22.00;91.70
61896;DHT22;47835;52.778;5.956;2022-07-23T13:06:37;22.00;92.50
61896;DHT22;47835;52.778;5.956;2022-07-23T13:09:06;22.10;93.20
61896;DHT22;47835;52.778;5.956;2022-07-23T13:11:32;22.10;92.80
61896;DHT22;47835;52.778;5.956;2022-07-23T13:13:58;22.00;93.00
61896;DHT22;47835;52.778;5.956;2022-07-23T13:16:29;22.00;93.20
61896;DHT22;47835;52.778;5.956;2022-07-23T13:18:56;22.10;92.70
61896;DHT22;47835;52.778;5.956;2022-07-23T13:21:24;22.10;93.00
61896;DHT22;47835;52.778;5.956;2022-07-23T13:23:50;22.10;92.40
61896;DHT22;47835;52.778;5.956;2022-07-23T13:26:16;22.10;92.80
61896;DHT22;47835;52.778;5.956;2022-07-23T13:28:42;22.10;92.70
61896;DHT22;47835;52.778;5.956;2022-07-23T13:31:07;22.10;92.10
61896;DHT22;47835;52.778;5.956;2022-07-23T13:33:33;22.10;92.00
61896;DHT22;47835;52.778;5.956;2022-07-23T13:35:59;22.10;92.70
61896;DHT22;47835;52.778;5.956;2022-07-23T13:38:25;22.20;92.70
61896;DHT22;47835;52.778;5.956;2022-07-23T13:40:51;22.20;92.10
61896;DHT22;47835;52.778;5.956;2022-07-23T13:43:20;22.20;91.10
61896;DHT22;47835;52.778;5.956;2022-07-23T13:45:47;22.20;90.40
61896;DHT22;47835;52.778;5.956;2022-07-23T13:48:13;22.20;90.50
61896;DHT22;47835;52.778;5.956;2022-07-23T13:50:41;22.20;91.20
61896;DHT22;47835;52.778;5.956;2022-07-23T13:53:09;22.20;91.10
61896;DHT22;47835;52.778;5.956;2022-07-23T13:55:36;22.20;91.70
61896;DHT22;47835;52.778;5.956;2022-07-23T13:58:03;22.20;89.90
61896;DHT22;47835;52.778;5.956;2022-07-23T14:00:30;22.20;87.10
61896;DHT22;47835;52.778;5.956;2022-07-23T14:02:57;22.10;89.70
61896;DHT22;47835;52.778;5.956;2022-07-23T14:05:23;22.20;90.30
61896;DHT22;47835;52.778;5.956;2022-07-23T14:07:49;22.10;90.40
61896;DHT22;47835;52.778;5.956;2022-07-23T14:10:17;22.10;90.60
61896;DHT22;47835;52.778;5.956;2022-07-23T14:12:47;22.10;90.50
61896;DHT22;47835;52.778;5.956;2022-07-23T14:15:13;22.10;90.70
61896;DHT22;47835;52.778;5.956;2022-07-23T14:17:41;22.00;90.80
61896;DHT22;47835;52.778;5.956;2022-07-23T14:20:08;22.00;90.80
61896;DHT22;47835;52.778;5.956;2022-07-23T14:22:34;22.00;90.60
61896;DHT22;47835;52.778;5.956;2022-07-23T14:25:00;22.00;90.60
61896;DHT22;47835;52.778;5.956;2022-07-23T14:27:27;22.00;90.40
61896;DHT22;47835;52.778;5.956;2022-07-23T14:29:53;22.00;90.50
61896;DHT22;47835;52.778;5.956;2022-07-23T14:32:19;22.00;90.80
61896;DHT22;47835;52.778;5.956;2022-07-23T14:34:45;22.00;91.00
61896;DHT22;47835;52.778;5.956;2022-07-23T14:37:11;22.00;90.80
61896;DHT22;47835;52.778;5.956;2022-07-23T14:39:40;22.00;90.90
61896;DHT22;47835;52.778;5.956;2022-07-23T14:42:07;22.00;90.50
61896;DHT22;47835;52.778;5.956;2022-07-23T14:44:34;22.10;91.60
61896;DHT22;47835;52.778;5.956;2022-07-23T14:47:00;22.10;90.80
61896;DHT22;47835;52.778;5.956;2022-07-23T14:49:26;22.10;92.00
61896;DHT22;47835;52.778;5.956;2022-07-23T14:51:54;22.10;91.50
61896;DHT22;47835;52.778;5.956;2022-07-23T14:54:20;22.10;90.60
61896;DHT22;47835;52.778;5.956;2022-07-23T14:56:46;22.10;90.20
61896;DHT22;47835;52.778;5.956;2022-07-23T14:59:13;22.20;91.00
61896;DHT22;47835;52.778;5.956;2022-07-23T15:01:38;22.20;90.90
61896;DHT22;47835;52.778;5.956;2022-07-23T15:04:05;22.10;90.60
61896;DHT22;47835;52.778;5.956;2022-07-23T15:06:32;22.20;89.70
61896;DHT22;47835;52.778;5.956;2022-07-23T15:08:58;22.20;90.60
61896;DHT22;47835;52.778;5.956;2022-07-23T15:11:26;22.20;90.60
61896;DHT22;47835;52.778;5.956;2022-07-23T15:13:54;22.20;89.80
61896;DHT22;47835;52.778;5.956;2022-07-23T15:16:20;22.20;89.40
61896;DHT22;47835;52.778;5.956;2022-07-23T15:18:48;22.20;90.10
61896;DHT22;47835;52.778;5.956;2022-07-23T15:21:17;22.30;90.00
61896;DHT22;47835;52.778;5.956;2022-07-23T15:23:43;22.30;89.30
61896;DHT22;47835;52.778;5.956;2022-07-23T15:26:08;22.40;90.40
61896;DHT22;47835;52.778;5.956;2022-07-23T15:28:35;22.40;89.50
61896;DHT22;47835;52.778;5.956;2022-07-23T15:31:01;22.40;88.10
61896;DHT22;47835;52.778;5.956;2022-07-23T15:33:27;22.50;89.80
61896;DHT22;47835;52.778;5.956;2022-07-23T15:35:52;22.40;89.00
61896;DHT22;47835;52.778;5.956;2022-07-23T15:38:20;22.40;89.60
61896;DHT22;47835;52.778;5.956;2022-07-23T15:40:46;22.40;90.10
61896;DHT22;47835;52.778;5.956;2022-07-23T15:43:12;22.40;90.60
61896;DHT22;47835;52.778;5.956;2022-07-23T15:45:39;22.40;89.50
61896;DHT22;47835;52.778;5.956;2022-07-23T15:48:05;22.40;89.30
61896;DHT22;47835;52.778;5.956;2022-07-23T15:50:31;22.40;87.80
61896;DHT22;47835;52.778;5.956;2022-07-23T15:53:01;22.40;87.70
61896;DHT22;47835;52.778;5.956;2022-07-23T15:55:27;22.40;86.30
61896;DHT22;47835;52.778;5.956;2022-07-23T15:57:52;22.40;89.30
61896;DHT22;47835;52.778;5.956;2022-07-23T16:00:20;22.40;89.30
61896;DHT22;47835;52.778;5.956;2022-07-23T16:02:46;22.40;88.90
61896;DHT22;47835;52.778;5.956;2022-07-23T16:05:12;22.40;89.60
61896;DHT22;47835;52.778;5.956;2022-07-23T16:07:55;22.40;89.60
61896;DHT22;47835;52.778;5.956;2022-07-23T16:10:21;22.40;89.90
61896;DHT22;47835;52.778;5.956;2022-07-23T16:12:47;22.40;90.30
61896;DHT22;47835;52.778;5.956;2022-07-23T16:15:13;22.40;90.20